sensor_id;sensor_type;location;lat;lon;timestamp;P1;durP1;ratioP1;P2;durP2;ratioP2
15120;SDS011;7661;48.904;9.414;2022-07-29T00:00:13;7.77;;;4.60;;
15120;SDS011;7661;48.904;9.414;2022-07-29T00:02:40;6.70;;;5.17;;
15120;SDS011;7661;48.904;9.414;2022-07-29T00:05:07;7.70;;;5.20;;
15120;SDS011;7661;48.904;9.414;2022-07-29T00:07:39;10.00;;;5.13;;
15120;SDS011;7661;48.904;9.414;2022-07-29T00:10:07;7.60;;;4.63;;
15120;SDS011;7661;48.904;9.414;2022-07-29T00:12:34;9.30;;;5.50;;
15120;SDS011;7661;48.904;9.414;2022-07-29T00:15:01;9.83;;;5.13;;
15120;SDS011;7661;48.904;9.414;2022-07-29T00:17:29;10.80;;;5.27;;
15120;SDS011;7661;48.904;9.414;2022-07-29T00:19:56;7.83;;;4.67;;
15120;SDS011;7661;48.904;9.414;2022-07-29T00:22:23;10.90;;;4.83;;
15120;SDS011;7661;48.904;9.414;2022-07-29T00:24:51;6.60;;;4.93;;
15120;SDS011;7661;48.904;9.414;2022-07-29T00:27:18;10.63;;;5.47;;
15120;SDS011;7661;48.904;9.414;2022-07-29T00:29:44;7.60;;;4.77;;
15120;SDS011;7661;48.904;9.414;2022-07-29T00:32:11;8.23;;;4.87;;
15120;SDS011;7661;48.904;9.414;2022-07-29T00:34:38;8.70;;;5.10;;
15120;SDS011;7661;48.904;9.414;2022-07-29T00:37:23;6.97;;;5.27;;
15120;SDS011;7661;48.904;9.414;2022-07-29T00:39:51;7.50;;;5.00;;
15120;SDS011;7661;48.904;9.414;2022-07-29T00:42:18;8.87;;;4.70;;
15120;SDS011;7661;48.904;9.414;2022-07-29T00:44:45;8.40;;;5.03;;
15120;SDS011;7661;48.904;9.414;2022-07-29T00:47:12;7.17;;;5.00;;
15120;SDS011;7661;48.904;9.414;2022-07-29T00:49:39;11.17;;;5.13;;
15120;SDS011;7661;48.904;9.414;2022-07-29T00:52:07;11.20;;;5.50;;
15120;SDS011;7661;48.904;9.414;2022-07-29T00:54:36;10.77;;;5.57;;
15120;SDS011;7661;48.904;9.414;2022-07-29T00:57:06;7.10;;;5.00;;
15120;SDS011;7661;48.904;9.414;2022-07-29T00:59:33;9.23;;;5.53;;
15120;SDS011;7661;48.904;9.414;2022-07-29T01:02:03;7.03;;;4.60;;
15120;SDS011;7661;48.904;9.414;2022-07-29T01:04:32;6.90;;;5.00;;
15120;SDS011;7661;48.904;9.414;2022-07-29T01:07:03;9.30;;;5.83;;
15120;SDS011;7661;48.904;9.414;2022-07-29T01:09:38;14.20;;;4.90;;
15120;SDS011;7661;48.904;9.414;2022-07-29T01:12:07;7.03;;;4.80;;
15120;SDS011;7661;48.904;9.414;2022-07-29T01:14:34;6.80;;;5.10;;
15120;SDS011;7661;48.904;9.414;2022-07-29T01:17:05;6.50;;;4.67;;
15120;SDS011;7661;48.904;9.414;2022-07-29T01:19:44;7.10;;;5.53;;
15120;SDS011;7661;48.904;9.414;2022-07-29T01:22:19;16.23;;;5.70;;
15120;SDS011;7661;48.904;9.414;2022-07-29T01:25:02;10.63;;;5.10;;
15120;SDS011;7661;48.904;9.414;2022-07-29T01:27:47;9.67;;;5.47;;
15120;SDS011;7661;48.904;9.414;2022-07-29T01:30:26;10.07;;;5.80;;
15120;SDS011;7661;48.904;9.414;2022-07-29T01:32:56;10.50;;;4.77;;
15120;SDS011;7661;48.904;9.414;2022-07-29T01:35:28;9.63;;;6.30;;
15120;SDS011;7661;48.904;9.414;2022-07-29T01:38:01;8.40;;;5.40;;
15120;SDS011;7661;48.904;9.414;2022-07-29T01:40:36;14.60;;;6.00;;
15120;SDS011;7661;48.904;9.414;2022-07-29T01:43:09;13.27;;;5.60;;
15120;SDS011;7661;48.904;9.414;2022-07-29T01:45:41;7.70;;;5.40;;
15120;SDS011;7661;48.904;9.414;2022-07-29T01:48:13;10.07;;;6.00;;
15120;SDS011;7661;48.904;9.414;2022-07-29T01:50:45;13.53;;;7.03;;
15120;SDS011;7661;48.904;9.414;2022-07-29T01:53:15;10.43;;;5.90;;
15120;SDS011;7661;48.904;9.414;2022-07-29T01:55:48;9.33;;;5.33;;
15120;SDS011;7661;48.904;9.414;2022-07-29T01:58:16;7.13;;;5.07;;
15120;SDS011;7661;48.904;9.414;2022-07-29T02:00:45;10.70;;;6.13;;
15120;SDS011;7661;48.904;9.414;2022-07-29T02:03:14;8.30;;;5.53;;
15120;SDS011;7661;48.904;9.414;2022-07-29T02:05:43;8.03;;;5.57;;
15120;SDS011;7661;48.904;9.414;2022-07-29T02:08:12;6.83;;;5.47;;
15120;SDS011;7661;48.904;9.414;2022-07-29T02:10:41;8.67;;;5.40;;
15120;SDS011;7661;48.904;9.414;2022-07-29T02:13:11;6.73;;;5.23;;
15120;SDS011;7661;48.904;9.414;2022-07-29T02:15:39;7.83;;;6.30;;
15120;SDS011;7661;48.904;9.414;2022-07-29T02:18:11;11.60;;;6.30;;
15120;SDS011;7661;48.904;9.414;2022-07-29T02:20:40;14.77;;;6.33;;
15120;SDS011;7661;48.904;9.414;2022-07-29T02:23:10;9.40;;;6.37;;
15120;SDS011;7661;48.904;9.414;2022-07-29T02:25:38;10.13;;;5.90;;
15120;SDS011;7661;48.904;9.414;2022-07-29T02:28:07;11.83;;;5.93;;
15120;SDS011;7661;48.904;9.414;2022-07-29T02:30:35;8.87;;;5.90;;
15120;SDS011;7661;48.904;9.414;2022-07-29T02:33:05;13.50;;;6.17;;
15120;SDS011;7661;48.904;9.414;2022-07-29T02:35:35;9.40;;;5.93;;
15120;SDS011;7661;48.904;9.414;2022-07-29T02:38:03;10.57;;;6.43;;
15120;SDS011;7661;48.904;9.414;2022-07-29T02:40:47;8.87;;;5.90;;
15120;SDS011;7661;48.904;9.414;2022-07-29T02:43:16;10.93;;;6.43;;
15120;SDS011;7661;48.904;9.414;2022-07-29T02:45:43;10.60;;;5.80;;
15120;SDS011;7661;48.904;9.414;2022-07-29T02:48:14;8.77;;;5.80;;
15120;SDS011;7661;48.904;9.414;2022-07-29T02:50:44;10.10;;;6.17;;
15120;SDS011;7661;48.904;9.414;2022-07-29T02:53:17;11.33;;;6.13;;
15120;SDS011;7661;48.904;9.414;2022-07-29T02:55:48;15.70;;;6.53;;
15120;SDS011;7661;48.904;9.414;2022-07-29T02:58:20;8.57;;;6.30;;
15120;SDS011;7661;48.904;9.414;2022-07-29T03:00:53;9.63;;;6.37;;
15120;SDS011;7661;48.904;9.414;2022-07-29T03:03:23;10.57;;;6.70;;
15120;SDS011;7661;48.904;9.414;2022-07-29T03:05:55;11.27;;;7.10;;
15120;SDS011;7661;48.904;9.414;2022-07-29T03:08:23;10.30;;;5.70;;
15120;SDS011;7661;48.904;9.414;2022-07-29T03:10:51;10.80;;;6.93;;
15120;SDS011;7661;48.904;9.414;2022-07-29T03:13:19;13.37;;;6.80;;
15120;SDS011;7661;48.904;9.414;2022-07-29T03:15:47;13.77;;;5.83;;
15120;SDS011;7661;48.904;9.414;2022-07-29T03:18:15;10.63;;;6.60;;
15120;SDS011;7661;48.904;9.414;2022-07-29T03:20:41;10.40;;;6.83;;
15120;SDS011;7661;48.904;9.414;2022-07-29T03:23:10;11.40;;;7.30;;
15120;SDS011;7661;48.904;9.414;2022-07-29T03:25:37;10.50;;;6.83;;
15120;SDS011;7661;48.904;9.414;2022-07-29T03:28:04;10.63;;;6.80;;
15120;SDS011;7661;48.904;9.414;2022-07-29T03:30:31;10.10;;;5.83;;
15120;SDS011;7661;48.904;9.414;2022-07-29T03:32:58;11.80;;;6.00;;
15120;SDS011;7661;48.904;9.414;2022-07-29T03:35:25;8.50;;;6.10;;
15120;SDS011;7661;48.904;9.414;2022-07-29T03:37:51;12.43;;;6.50;;
15120;SDS011;7661;48.904;9.414;2022-07-29T03:40:22;9.20;;;6.50;;
15120;SDS011;7661;48.904;9.414;2022-07-29T03:42:51;11.03;;;6.70;;
15120;SDS011;7661;48.904;9.414;2022-07-29T03:45:21;9.90;;;6.83;;
15120;SDS011;7661;48.904;9.414;2022-07-29T03:47:50;7.37;;;6.27;;
15120;SDS011;7661;48.904;9.414;2022-07-29T03:50:21;9.80;;;6.97;;
15120;SDS011;7661;48.904;9.414;2022-07-29T03:52:48;10.90;;;7.10;;
15120;SDS011;7661;48.904;9.414;2022-07-29T03:55:15;7.70;;;6.40;;
15120;SDS011;7661;48.904;9.414;2022-07-29T03:57:44;13.20;;;6.00;;
15120;SDS011;7661;48.904;9.414;2022-07-29T04:00:12;9.10;;;6.13;;
15120;SDS011;7661;48.904;9.414;2022-07-29T04:02:41;11.33;;;6.70;;
15120;SDS011;7661;48.904;9.414;2022-07-29T04:05:11;9.30;;;6.70;;
15120;SDS011;7661;48.904;9.414;2022-07-29T04:07:39;12.83;;;7.37;;
15120;SDS011;7661;48.904;9.414;2022-07-29T04:10:06;8.03;;;6.33;;
15120;SDS011;7661;48.904;9.414;2022-07-29T04:12:33;16.53;;;7.70;;
15120;SDS011;7661;48.904;9.414;2022-07-29T04:15:02;16.17;;;7.90;;
15120;SDS011;7661;48.904;9.414;2022-07-29T04:17:29;8.70;;;6.40;;
15120;SDS011;7661;48.904;9.414;2022-07-29T04:19:56;9.97;;;6.60;;
15120;SDS011;7661;48.904;9.414;2022-07-29T04:22:23;12.20;;;6.80;;
15120;SDS011;7661;48.904;9.414;2022-07-29T04:24:50;11.80;;;7.60;;
15120;SDS011;7661;48.904;9.414;2022-07-29T04:27:17;11.53;;;7.67;;
15120;SDS011;7661;48.904;9.414;2022-07-29T04:29:44;12.23;;;7.40;;
15120;SDS011;7661;48.904;9.414;2022-07-29T04:32:12;9.83;;;6.83;;
15120;SDS011;7661;48.904;9.414;2022-07-29T04:34:39;11.20;;;6.43;;
15120;SDS011;7661;48.904;9.414;2022-07-29T04:37:06;8.40;;;6.50;;
15120;SDS011;7661;48.904;9.414;2022-07-29T04:39:33;8.73;;;6.23;;
15120;SDS011;7661;48.904;9.414;2022-07-29T04:42:00;10.23;;;6.63;;
15120;SDS011;7661;48.904;9.414;2022-07-29T04:44:26;9.70;;;7.03;;
15120;SDS011;7661;48.904;9.414;2022-07-29T04:46:53;10.93;;;7.27;;
15120;SDS011;7661;48.904;9.414;2022-07-29T04:49:22;10.97;;;6.70;;
15120;SDS011;7661;48.904;9.414;2022-07-29T04:51:49;8.87;;;6.93;;
15120;SDS011;7661;48.904;9.414;2022-07-29T04:54:16;10.20;;;7.30;;
15120;SDS011;7661;48.904;9.414;2022-07-29T04:56:43;15.50;;;6.67;;
15120;SDS011;7661;48.904;9.414;2022-07-29T04:59:11;11.90;;;6.60;;
15120;SDS011;7661;48.904;9.414;2022-07-29T05:01:38;11.43;;;8.03;;
15120;SDS011;7661;48.904;9.414;2022-07-29T05:04:05;13.00;;;9.00;;
15120;SDS011;7661;48.904;9.414;2022-07-29T05:06:33;10.57;;;7.90;;
15120;SDS011;7661;48.904;9.414;2022-07-29T05:09:00;9.07;;;6.90;;
15120;SDS011;7661;48.904;9.414;2022-07-29T05:14:00;17.63;;;6.83;;
15120;SDS011;7661;48.904;9.414;2022-07-29T05:16:27;9.60;;;6.43;;
15120;SDS011;7661;48.904;9.414;2022-07-29T05:18:54;13.80;;;6.10;;
15120;SDS011;7661;48.904;9.414;2022-07-29T05:21:21;11.73;;;6.83;;
15120;SDS011;7661;48.904;9.414;2022-07-29T05:23:49;8.73;;;6.13;;
15120;SDS011;7661;48.904;9.414;2022-07-29T05:26:16;7.80;;;6.00;;
15120;SDS011;7661;48.904;9.414;2022-07-29T05:28:43;12.20;;;6.10;;
15120;SDS011;7661;48.904;9.414;2022-07-29T05:31:10;8.43;;;6.30;;
15120;SDS011;7661;48.904;9.414;2022-07-29T05:33:36;10.97;;;5.93;;
15120;SDS011;7661;48.904;9.414;2022-07-29T05:36:03;8.77;;;5.60;;
15120;SDS011;7661;48.904;9.414;2022-07-29T05:38:31;8.23;;;5.20;;
15120;SDS011;7661;48.904;9.414;2022-07-29T05:41:00;8.10;;;5.17;;
15120;SDS011;7661;48.904;9.414;2022-07-29T05:43:27;13.97;;;5.83;;
15120;SDS011;7661;48.904;9.414;2022-07-29T05:45:54;15.60;;;5.40;;
15120;SDS011;7661;48.904;9.414;2022-07-29T05:48:20;9.10;;;5.73;;
15120;SDS011;7661;48.904;9.414;2022-07-29T05:50:47;12.10;;;6.83;;
15120;SDS011;7661;48.904;9.414;2022-07-29T05:53:14;7.90;;;5.80;;
15120;SDS011;7661;48.904;9.414;2022-07-29T05:55:41;14.73;;;6.07;;
15120;SDS011;7661;48.904;9.414;2022-07-29T05:58:09;7.80;;;5.43;;
15120;SDS011;7661;48.904;9.414;2022-07-29T06:00:36;7.23;;;5.70;;
15120;SDS011;7661;48.904;9.414;2022-07-29T06:03:03;10.67;;;6.00;;
15120;SDS011;7661;48.904;9.414;2022-07-29T06:05:30;8.10;;;4.40;;
15120;SDS011;7661;48.904;9.414;2022-07-29T06:07:57;7.33;;;4.67;;
15120;SDS011;7661;48.904;9.414;2022-07-29T06:10:24;8.23;;;4.23;;
15120;SDS011;7661;48.904;9.414;2022-07-29T06:12:51;9.20;;;4.10;;
15120;SDS011;7661;48.904;9.414;2022-07-29T06:15:20;5.70;;;3.90;;
15120;SDS011;7661;48.904;9.414;2022-07-29T06:17:47;6.90;;;4.00;;
15120;SDS011;7661;48.904;9.414;2022-07-29T06:20:14;6.00;;;3.67;;
15120;SDS011;7661;48.904;9.414;2022-07-29T06:22:41;5.00;;;3.37;;
15120;SDS011;7661;48.904;9.414;2022-07-29T06:25:08;6.50;;;3.87;;
15120;SDS011;7661;48.904;9.414;2022-07-29T06:27:35;10.07;;;3.90;;
15120;SDS011;7661;48.904;9.414;2022-07-29T06:30:02;7.20;;;3.70;;
15120;SDS011;7661;48.904;9.414;2022-07-29T06:32:32;5.47;;;3.77;;
15120;SDS011;7661;48.904;9.414;2022-07-29T06:34:59;5.10;;;3.87;;
15120;SDS011;7661;48.904;9.414;2022-07-29T06:37:26;8.63;;;3.60;;
15120;SDS011;7661;48.904;9.414;2022-07-29T06:39:53;7.10;;;4.17;;
15120;SDS011;7661;48.904;9.414;2022-07-29T06:42:34;7.67;;;3.60;;
15120;SDS011;7661;48.904;9.414;2022-07-29T06:45:02;6.00;;;3.80;;
15120;SDS011;7661;48.904;9.414;2022-07-29T06:47:29;4.90;;;3.27;;
15120;SDS011;7661;48.904;9.414;2022-07-29T06:49:57;9.13;;;3.70;;
15120;SDS011;7661;48.904;9.414;2022-07-29T06:52:24;6.20;;;3.70;;
15120;SDS011;7661;48.904;9.414;2022-07-29T06:54:51;4.90;;;3.40;;
15120;SDS011;7661;48.904;9.414;2022-07-29T06:57:20;5.73;;;3.13;;
15120;SDS011;7661;48.904;9.414;2022-07-29T06:59:46;4.87;;;3.37;;
15120;SDS011;7661;48.904;9.414;2022-07-29T07:02:14;6.03;;;3.40;;
15120;SDS011;7661;48.904;9.414;2022-07-29T07:04:41;5.17;;;3.20;;
15120;SDS011;7661;48.904;9.414;2022-07-29T07:07:09;4.40;;;3.03;;
15120;SDS011;7661;48.904;9.414;2022-07-29T07:09:36;5.73;;;3.20;;
15120;SDS011;7661;48.904;9.414;2022-07-29T07:12:03;8.37;;;3.33;;
15120;SDS011;7661;48.904;9.414;2022-07-29T07:14:30;4.47;;;3.50;;
15120;SDS011;7661;48.904;9.414;2022-07-29T07:16:57;6.03;;;3.33;;
15120;SDS011;7661;48.904;9.414;2022-07-29T07:19:25;4.83;;;3.03;;
15120;SDS011;7661;48.904;9.414;2022-07-29T07:21:52;4.20;;;3.17;;
15120;SDS011;7661;48.904;9.414;2022-07-29T07:24:21;9.10;;;3.00;;
15120;SDS011;7661;48.904;9.414;2022-07-29T07:26:48;6.07;;;3.23;;
15120;SDS011;7661;48.904;9.414;2022-07-29T07:29:15;4.83;;;3.03;;
15120;SDS011;7661;48.904;9.414;2022-07-29T07:31:42;4.20;;;3.00;;
15120;SDS011;7661;48.904;9.414;2022-07-29T07:34:08;6.30;;;3.40;;
15120;SDS011;7661;48.904;9.414;2022-07-29T07:36:35;6.30;;;2.93;;
15120;SDS011;7661;48.904;9.414;2022-07-29T07:39:02;5.73;;;3.07;;
15120;SDS011;7661;48.904;9.414;2022-07-29T07:41:31;4.37;;;3.30;;
15120;SDS011;7661;48.904;9.414;2022-07-29T07:43:58;6.23;;;3.10;;
15120;SDS011;7661;48.904;9.414;2022-07-29T07:46:25;6.63;;;3.30;;
15120;SDS011;7661;48.904;9.414;2022-07-29T07:48:52;4.83;;;3.20;;
15120;SDS011;7661;48.904;9.414;2022-07-29T07:51:19;4.90;;;2.80;;
15120;SDS011;7661;48.904;9.414;2022-07-29T07:53:46;6.67;;;4.00;;
15120;SDS011;7661;48.904;9.414;2022-07-29T07:56:14;6.57;;;3.23;;
15120;SDS011;7661;48.904;9.414;2022-07-29T07:58:43;6.13;;;3.07;;
15120;SDS011;7661;48.904;9.414;2022-07-29T08:01:10;7.20;;;3.70;;
15120;SDS011;7661;48.904;9.414;2022-07-29T08:03:36;4.50;;;3.57;;
15120;SDS011;7661;48.904;9.414;2022-07-29T08:06:04;6.57;;;3.80;;
15120;SDS011;7661;48.904;9.414;2022-07-29T08:08:31;7.23;;;3.53;;
15120;SDS011;7661;48.904;9.414;2022-07-29T08:10:58;5.80;;;3.10;;
15120;SDS011;7661;48.904;9.414;2022-07-29T08:13:27;9.60;;;3.10;;
15120;SDS011;7661;48.904;9.414;2022-07-29T08:15:56;5.33;;;3.33;;
15120;SDS011;7661;48.904;9.414;2022-07-29T08:18:25;5.90;;;4.17;;
15120;SDS011;7661;48.904;9.414;2022-07-29T08:20:52;6.57;;;3.80;;
15120;SDS011;7661;48.904;9.414;2022-07-29T08:23:20;5.67;;;3.27;;
15120;SDS011;7661;48.904;9.414;2022-07-29T08:25:47;4.90;;;3.03;;
15120;SDS011;7661;48.904;9.414;2022-07-29T08:28:15;5.30;;;3.00;;
15120;SDS011;7661;48.904;9.414;2022-07-29T08:30:42;6.70;;;3.37;;
15120;SDS011;7661;48.904;9.414;2022-07-29T08:33:10;8.43;;;3.60;;
15120;SDS011;7661;48.904;9.414;2022-07-29T08:35:38;5.00;;;3.23;;
15120;SDS011;7661;48.904;9.414;2022-07-29T08:38:05;6.40;;;3.30;;
15120;SDS011;7661;48.904;9.414;2022-07-29T08:40:32;4.83;;;3.10;;
15120;SDS011;7661;48.904;9.414;2022-07-29T08:42:59;4.50;;;3.13;;
15120;SDS011;7661;48.904;9.414;2022-07-29T08:45:31;5.20;;;3.00;;
15120;SDS011;7661;48.904;9.414;2022-07-29T08:48:07;6.83;;;3.50;;
15120;SDS011;7661;48.904;9.414;2022-07-29T08:50:35;6.20;;;3.17;;
15120;SDS011;7661;48.904;9.414;2022-07-29T08:53:04;5.60;;;3.50;;
15120;SDS011;7661;48.904;9.414;2022-07-29T08:55:33;4.63;;;2.83;;
15120;SDS011;7661;48.904;9.414;2022-07-29T08:58:00;4.90;;;3.00;;
15120;SDS011;7661;48.904;9.414;2022-07-29T09:00:27;6.47;;;3.40;;
15120;SDS011;7661;48.904;9.414;2022-07-29T09:02:56;4.40;;;3.13;;
15120;SDS011;7661;48.904;9.414;2022-07-29T09:05:24;7.67;;;4.00;;
15120;SDS011;7661;48.904;9.414;2022-07-29T09:07:54;6.33;;;3.73;;
15120;SDS011;7661;48.904;9.414;2022-07-29T09:10:21;8.07;;;3.80;;
15120;SDS011;7661;48.904;9.414;2022-07-29T09:12:48;7.67;;;3.83;;
15120;SDS011;7661;48.904;9.414;2022-07-29T09:15:15;5.23;;;3.17;;
15120;SDS011;7661;48.904;9.414;2022-07-29T09:17:43;6.37;;;4.07;;
15120;SDS011;7661;48.904;9.414;2022-07-29T09:20:13;7.30;;;3.63;;
15120;SDS011;7661;48.904;9.414;2022-07-29T09:22:41;11.50;;;3.43;;
15120;SDS011;7661;48.904;9.414;2022-07-29T09:25:10;9.80;;;3.70;;
15120;SDS011;7661;48.904;9.414;2022-07-29T09:27:38;6.83;;;4.00;;
15120;SDS011;7661;48.904;9.414;2022-07-29T09:30:05;6.07;;;3.90;;
15120;SDS011;7661;48.904;9.414;2022-07-29T09:32:53;7.43;;;3.93;;
15120;SDS011;7661;48.904;9.414;2022-07-29T09:35:21;8.50;;;3.53;;
15120;SDS011;7661;48.904;9.414;2022-07-29T09:37:49;10.10;;;3.63;;
15120;SDS011;7661;48.904;9.414;2022-07-29T09:40:19;6.90;;;3.60;;
15120;SDS011;7661;48.904;9.414;2022-07-29T09:42:47;8.40;;;4.60;;
15120;SDS011;7661;48.904;9.414;2022-07-29T09:45:25;10.70;;;3.37;;
15120;SDS011;7661;48.904;9.414;2022-07-29T09:47:54;6.23;;;4.00;;
15120;SDS011;7661;48.904;9.414;2022-07-29T09:50:34;8.03;;;4.00;;
15120;SDS011;7661;48.904;9.414;2022-07-29T09:53:01;6.50;;;3.93;;
15120;SDS011;7661;48.904;9.414;2022-07-29T09:55:29;11.20;;;4.00;;
15120;SDS011;7661;48.904;9.414;2022-07-29T10:00:42;6.20;;;4.03;;
15120;SDS011;7661;48.904;9.414;2022-07-29T10:03:10;10.33;;;4.27;;
15120;SDS011;7661;48.904;9.414;2022-07-29T10:05:37;17.60;;;4.40;;
15120;SDS011;7661;48.904;9.414;2022-07-29T10:08:07;5.67;;;4.33;;
15120;SDS011;7661;48.904;9.414;2022-07-29T10:10:37;11.27;;;4.57;;
15120;SDS011;7661;48.904;9.414;2022-07-29T10:13:05;7.90;;;4.07;;
15120;SDS011;7661;48.904;9.414;2022-07-29T10:15:34;7.70;;;4.10;;
15120;SDS011;7661;48.904;9.414;2022-07-29T10:18:06;7.47;;;4.27;;
15120;SDS011;7661;48.904;9.414;2022-07-29T10:20:33;11.10;;;4.20;;
15120;SDS011;7661;48.904;9.414;2022-07-29T10:23:01;7.80;;;4.10;;
15120;SDS011;7661;48.904;9.414;2022-07-29T10:25:28;7.20;;;3.87;;
15120;SDS011;7661;48.904;9.414;2022-07-29T10:27:56;8.57;;;4.20;;
15120;SDS011;7661;48.904;9.414;2022-07-29T10:30:24;7.57;;;4.03;;
15120;SDS011;7661;48.904;9.414;2022-07-29T10:35:46;9.53;;;4.00;;
15120;SDS011;7661;48.904;9.414;2022-07-29T10:38:27;7.87;;;3.90;;
15120;SDS011;7661;48.904;9.414;2022-07-29T10:41:11;7.90;;;4.03;;
15120;SDS011;7661;48.904;9.414;2022-07-29T10:43:56;7.00;;;4.13;;
15120;SDS011;7661;48.904;9.414;2022-07-29T10:46:27;11.57;;;4.90;;
15120;SDS011;7661;48.904;9.414;2022-07-29T10:49:04;8.90;;;4.13;;
15120;SDS011;7661;48.904;9.414;2022-07-29T10:51:53;7.27;;;4.20;;
15120;SDS011;7661;48.904;9.414;2022-07-29T10:57:16;6.60;;;4.30;;
15120;SDS011;7661;48.904;9.414;2022-07-29T10:59:47;15.10;;;4.30;;
15120;SDS011;7661;48.904;9.414;2022-07-29T11:05:09;8.27;;;4.33;;
15120;SDS011;7661;48.904;9.414;2022-07-29T11:07:38;9.37;;;4.37;;
15120;SDS011;7661;48.904;9.414;2022-07-29T11:10:25;8.13;;;4.40;;
15120;SDS011;7661;48.904;9.414;2022-07-29T11:12:52;8.43;;;4.20;;
15120;SDS011;7661;48.904;9.414;2022-07-29T11:15:21;11.43;;;4.30;;
15120;SDS011;7661;48.904;9.414;2022-07-29T11:18:07;9.80;;;4.03;;
15120;SDS011;7661;48.904;9.414;2022-07-29T11:20:38;15.60;;;4.70;;
15120;SDS011;7661;48.904;9.414;2022-07-29T11:23:20;5.73;;;4.17;;
15120;SDS011;7661;48.904;9.414;2022-07-29T11:28:49;7.83;;;3.70;;
15120;SDS011;7661;48.904;9.414;2022-07-29T11:31:31;7.40;;;4.50;;
15120;SDS011;7661;48.904;9.414;2022-07-29T11:34:16;9.10;;;3.90;;
15120;SDS011;7661;48.904;9.414;2022-07-29T11:40:10;10.37;;;3.93;;
15120;SDS011;7661;48.904;9.414;2022-07-29T11:42:45;10.60;;;4.60;;
15120;SDS011;7661;48.904;9.414;2022-07-29T11:45:14;9.73;;;4.30;;
15120;SDS011;7661;48.904;9.414;2022-07-29T11:47:48;6.30;;;4.13;;
15120;SDS011;7661;48.904;9.414;2022-07-29T11:50:29;11.10;;;4.23;;
15120;SDS011;7661;48.904;9.414;2022-07-29T11:52:58;8.07;;;4.10;;
15120;SDS011;7661;48.904;9.414;2022-07-29T11:55:27;9.80;;;4.70;;
15120;SDS011;7661;48.904;9.414;2022-07-29T11:57:55;9.67;;;4.60;;
15120;SDS011;7661;48.904;9.414;2022-07-29T12:00:26;14.50;;;5.70;;
15120;SDS011;7661;48.904;9.414;2022-07-29T12:02:56;8.57;;;5.00;;
15120;SDS011;7661;48.904;9.414;2022-07-29T12:05:30;18.20;;;6.30;;
15120;SDS011;7661;48.904;9.414;2022-07-29T12:08:09;12.93;;;5.00;;
15120;SDS011;7661;48.904;9.414;2022-07-29T12:10:38;11.10;;;5.33;;
15120;SDS011;7661;48.904;9.414;2022-07-29T12:13:06;10.20;;;5.90;;
15120;SDS011;7661;48.904;9.414;2022-07-29T12:15:33;14.53;;;6.90;;
15120;SDS011;7661;48.904;9.414;2022-07-29T12:18:10;12.13;;;6.10;;
15120;SDS011;7661;48.904;9.414;2022-07-29T12:20:37;15.30;;;6.67;;
15120;SDS011;7661;48.904;9.414;2022-07-29T12:23:05;10.77;;;6.80;;
15120;SDS011;7661;48.904;9.414;2022-07-29T12:25:33;12.83;;;7.53;;
15120;SDS011;7661;48.904;9.414;2022-07-29T12:28:03;14.90;;;6.67;;
15120;SDS011;7661;48.904;9.414;2022-07-29T12:30:34;16.13;;;6.57;;
15120;SDS011;7661;48.904;9.414;2022-07-29T12:33:14;16.40;;;7.37;;
15120;SDS011;7661;48.904;9.414;2022-07-29T12:35:44;13.53;;;6.37;;
15120;SDS011;7661;48.904;9.414;2022-07-29T12:38:12;10.57;;;5.87;;
15120;SDS011;7661;48.904;9.414;2022-07-29T12:40:40;9.40;;;5.83;;
15120;SDS011;7661;48.904;9.414;2022-07-29T12:43:09;10.90;;;5.57;;
15120;SDS011;7661;48.904;9.414;2022-07-29T12:45:37;7.73;;;5.17;;
15120;SDS011;7661;48.904;9.414;2022-07-29T12:48:05;6.87;;;4.80;;
15120;SDS011;7661;48.904;9.414;2022-07-29T12:50:36;7.63;;;4.30;;
15120;SDS011;7661;48.904;9.414;2022-07-29T12:53:09;11.80;;;4.57;;
15120;SDS011;7661;48.904;9.414;2022-07-29T12:55:38;8.37;;;4.67;;
15120;SDS011;7661;48.904;9.414;2022-07-29T12:58:07;7.00;;;4.70;;
15120;SDS011;7661;48.904;9.414;2022-07-29T13:00:34;7.63;;;4.40;;
15120;SDS011;7661;48.904;9.414;2022-07-29T13:03:01;9.00;;;3.90;;
15120;SDS011;7661;48.904;9.414;2022-07-29T13:05:42;7.07;;;3.93;;
15120;SDS011;7661;48.904;9.414;2022-07-29T13:08:11;7.37;;;4.63;;
15120;SDS011;7661;48.904;9.414;2022-07-29T13:10:39;5.40;;;3.80;;
15120;SDS011;7661;48.904;9.414;2022-07-29T13:13:07;10.10;;;4.53;;
15120;SDS011;7661;48.904;9.414;2022-07-29T13:15:35;14.93;;;4.30;;
15120;SDS011;7661;48.904;9.414;2022-07-29T13:18:03;5.63;;;3.47;;
15120;SDS011;7661;48.904;9.414;2022-07-29T13:20:31;9.30;;;3.77;;
15120;SDS011;7661;48.904;9.414;2022-07-29T13:23:00;6.70;;;3.20;;
15120;SDS011;7661;48.904;9.414;2022-07-29T13:25:28;6.30;;;2.70;;
15120;SDS011;7661;48.904;9.414;2022-07-29T13:27:56;4.43;;;2.70;;
15120;SDS011;7661;48.904;9.414;2022-07-29T13:30:24;5.50;;;2.90;;
15120;SDS011;7661;48.904;9.414;2022-07-29T13:32:51;4.30;;;2.27;;
15120;SDS011;7661;48.904;9.414;2022-07-29T13:35:20;4.40;;;2.47;;
15120;SDS011;7661;48.904;9.414;2022-07-29T13:37:46;9.53;;;2.57;;
15120;SDS011;7661;48.904;9.414;2022-07-29T13:40:15;5.10;;;2.70;;
15120;SDS011;7661;48.904;9.414;2022-07-29T13:42:42;3.87;;;2.67;;
15120;SDS011;7661;48.904;9.414;2022-07-29T13:45:09;4.33;;;2.67;;
15120;SDS011;7661;48.904;9.414;2022-07-29T13:47:37;5.30;;;2.90;;
15120;SDS011;7661;48.904;9.414;2022-07-29T13:50:05;6.83;;;2.77;;
15120;SDS011;7661;48.904;9.414;2022-07-29T13:52:35;5.70;;;2.70;;
15120;SDS011;7661;48.904;9.414;2022-07-29T13:55:02;5.83;;;3.47;;
15120;SDS011;7661;48.904;9.414;2022-07-29T13:57:32;7.50;;;2.47;;
15120;SDS011;7661;48.904;9.414;2022-07-29T13:59:59;5.57;;;3.03;;
15120;SDS011;7661;48.904;9.414;2022-07-29T14:02:25;7.47;;;3.30;;
15120;SDS011;7661;48.904;9.414;2022-07-29T14:04:52;6.63;;;2.97;;
15120;SDS011;7661;48.904;9.414;2022-07-29T14:07:20;7.10;;;3.13;;
15120;SDS011;7661;48.904;9.414;2022-07-29T14:09:47;6.10;;;3.23;;
15120;SDS011;7661;48.904;9.414;2022-07-29T14:12:15;6.23;;;3.20;;
15120;SDS011;7661;48.904;9.414;2022-07-29T14:14:43;6.33;;;3.37;;
15120;SDS011;7661;48.904;9.414;2022-07-29T14:17:10;7.30;;;3.60;;
15120;SDS011;7661;48.904;9.414;2022-07-29T14:19:37;4.83;;;3.10;;
15120;SDS011;7661;48.904;9.414;2022-07-29T14:22:04;5.20;;;3.13;;
15120;SDS011;7661;48.904;9.414;2022-07-29T14:24:32;7.50;;;3.50;;
15120;SDS011;7661;48.904;9.414;2022-07-29T14:26:59;4.87;;;3.40;;
15120;SDS011;7661;48.904;9.414;2022-07-29T14:29:26;6.90;;;3.60;;
15120;SDS011;7661;48.904;9.414;2022-07-29T14:31:54;6.40;;;3.50;;
15120;SDS011;7661;48.904;9.414;2022-07-29T14:34:21;8.87;;;3.80;;
15120;SDS011;7661;48.904;9.414;2022-07-29T14:36:48;5.47;;;3.67;;
15120;SDS011;7661;48.904;9.414;2022-07-29T14:39:15;7.20;;;3.60;;
15120;SDS011;7661;48.904;9.414;2022-07-29T14:41:42;5.60;;;3.20;;
15120;SDS011;7661;48.904;9.414;2022-07-29T14:44:09;10.33;;;4.40;;
15120;SDS011;7661;48.904;9.414;2022-07-29T14:46:36;5.53;;;3.63;;
15120;SDS011;7661;48.904;9.414;2022-07-29T14:49:04;6.00;;;3.70;;
15120;SDS011;7661;48.904;9.414;2022-07-29T14:51:31;6.30;;;4.10;;
15120;SDS011;7661;48.904;9.414;2022-07-29T14:53:58;6.20;;;3.80;;
15120;SDS011;7661;48.904;9.414;2022-07-29T14:56:26;9.20;;;4.30;;
15120;SDS011;7661;48.904;9.414;2022-07-29T14:58:54;7.30;;;4.60;;
15120;SDS011;7661;48.904;9.414;2022-07-29T15:01:22;6.33;;;3.90;;
15120;SDS011;7661;48.904;9.414;2022-07-29T15:03:49;6.07;;;4.30;;
15120;SDS011;7661;48.904;9.414;2022-07-29T15:06:17;6.63;;;4.13;;
15120;SDS011;7661;48.904;9.414;2022-07-29T15:08:44;6.30;;;4.53;;
15120;SDS011;7661;48.904;9.414;2022-07-29T15:11:11;6.27;;;3.83;;
15120;SDS011;7661;48.904;9.414;2022-07-29T15:13:38;7.67;;;4.50;;
15120;SDS011;7661;48.904;9.414;2022-07-29T15:16:05;7.13;;;4.10;;
15120;SDS011;7661;48.904;9.414;2022-07-29T15:18:32;9.33;;;4.03;;
15120;SDS011;7661;48.904;9.414;2022-07-29T15:20:59;6.67;;;4.10;;
15120;SDS011;7661;48.904;9.414;2022-07-29T15:23:28;8.30;;;4.53;;
15120;SDS011;7661;48.904;9.414;2022-07-29T15:25:55;11.60;;;5.47;;
15120;SDS011;7661;48.904;9.414;2022-07-29T15:28:22;6.63;;;4.67;;